createdAt,value
2019-05-19T00:01:15.787Z,58.57
2019-05-19T00:03:45.295Z,58.47
2019-05-19T00:06:15.223Z,58.33
2019-05-19T00:08:44.461Z,58.49
2019-05-19T00:11:14.048Z,58.54
2019-05-19T00:13:43.315Z,58.68
2019-05-19T00:16:12.585Z,58.98
2019-05-19T00:18:42.113Z,59.39
2019-05-19T00:21:11.940Z,58.96
2019-05-19T00:23:41.458Z,59.00
2019-05-19T00:26:10.673Z,59.39
2019-05-19T00:28:39.921Z,59.36
2019-05-19T00:31:09.160Z,59.97
2019-05-19T00:33:39.072Z,60.17
2019-05-19T00:36:08.295Z,60.36
2019-05-19T00:38:37.523Z,60.44
2019-05-19T00:41:06.859Z,61.11
2019-05-19T00:43:36.076Z,60.83
2019-05-19T00:46:05.427Z,61.57
2019-05-19T00:48:34.939Z,60.96
2019-05-19T00:51:04.467Z,60.68
2019-05-19T00:53:34.132Z,60.53
2019-05-19T00:56:03.399Z,60.78
2019-05-19T00:58:34.130Z,60.94
2019-05-19T01:01:03.616Z,61.15
2019-05-19T01:03:33.169Z,61.24
2019-05-19T01:06:02.400Z,61.16
2019-05-19T01:08:31.747Z,61.42
2019-05-19T01:11:00.956Z,61.77
2019-05-19T01:13:30.213Z,62.17
2019-05-19T01:15:59.455Z,62.38
2019-05-19T01:18:28.701Z,62.46
2019-05-19T01:20:58.474Z,62.67
2019-05-19T01:23:27.705Z,62.50
2019-05-19T01:25:56.941Z,63.08
2019-05-19T01:28:26.617Z,62.58
2019-05-19T01:30:55.851Z,62.95
2019-05-19T01:33:25.450Z,63.32
2019-05-19T01:35:54.676Z,63.87
2019-05-19T01:38:24.488Z,63.97
2019-05-19T01:40:53.740Z,63.78
2019-05-19T01:43:22.975Z,64.28
2019-05-19T01:45:52.200Z,64.28
2019-05-19T01:48:21.715Z,64.19
2019-05-19T01:50:51.213Z,64.58
2019-05-19T01:53:20.455Z,63.87
2019-05-19T01:55:49.956Z,63.82
2019-05-19T01:58:19.178Z,64.97
2019-05-19T02:00:48.404Z,65.15
2019-05-19T02:03:17.613Z,65.39
2019-05-19T02:05:46.930Z,65.56
2019-05-19T02:08:16.542Z,65.50
2019-05-19T02:10:45.792Z,66.18
2019-05-19T02:14:59.418Z,66.03
2019-05-19T02:17:29.667Z,65.74
2019-05-19T02:19:58.901Z,65.60
2019-05-19T02:22:28.673Z,65.70
2019-05-19T02:24:57.899Z,66.44
2019-05-19T02:27:27.476Z,66.42
2019-05-19T02:29:56.844Z,65.71
2019-05-19T02:32:26.750Z,65.07
2019-05-19T02:34:55.974Z,64.88
2019-05-19T02:37:25.480Z,64.96
2019-05-19T02:39:55.015Z,65.18
2019-05-19T02:42:25.826Z,65.34
2019-05-19T02:44:55.830Z,65.15
2019-05-19T02:47:25.357Z,65.88
2019-05-19T02:49:56.472Z,66.26
2019-05-19T02:52:27.271Z,66.42
2019-05-19T02:54:56.859Z,66.85
2019-05-19T02:57:26.122Z,67.06
2019-05-19T02:59:55.764Z,67.50
2019-05-19T03:02:25.143Z,68.00
2019-05-19T03:04:54.368Z,68.04
2019-05-19T03:07:23.599Z,68.61
2019-05-19T03:09:53.140Z,68.75
2019-05-19T03:12:22.727Z,67.52
2019-05-19T03:14:52.313Z,68.31
2019-05-19T03:17:21.559Z,68.71
2019-05-19T03:19:50.804Z,68.34
2019-05-19T03:22:20.037Z,68.78
2019-05-19T03:24:49.284Z,68.22
2019-05-19T03:27:18.526Z,68.71
2019-05-19T03:29:52.807Z,68.62
2019-05-19T03:32:44.713Z,69.12
2019-05-19T03:35:13.975Z,68.75
2019-05-19T03:37:43.194Z,69.34
2019-05-19T03:40:21.399Z,69.33
2019-05-19T03:42:51.308Z,69.05
2019-05-19T03:45:20.815Z,69.44
2019-05-19T03:47:50.359Z,69.03
2019-05-19T03:50:19.599Z,68.82
2019-05-19T03:52:48.899Z,68.65
2019-05-19T03:55:18.343Z,68.78
2019-05-19T03:57:47.912Z,67.85
2019-05-19T04:00:17.376Z,68.01
2019-05-19T04:02:47.022Z,67.96
2019-05-19T04:05:16.624Z,67.54
2019-05-19T04:07:45.839Z,67.75
2019-05-19T04:10:16.237Z,67.81
2019-05-19T04:12:45.443Z,67.97
2019-05-19T04:15:15.831Z,68.04
2019-05-19T04:17:46.217Z,67.74
2019-05-19T04:20:16.124Z,67.86
2019-05-19T04:22:45.344Z,67.42
2019-05-19T04:25:14.577Z,67.31
2019-05-19T04:27:43.885Z,66.95
2019-05-19T04:30:13.521Z,65.91
2019-05-19T04:32:42.751Z,64.91
2019-05-19T04:35:12.195Z,64.01
2019-05-19T04:37:41.474Z,63.98
2019-05-19T04:40:11.448Z,63.89
2019-05-19T04:42:41.010Z,63.69
2019-05-19T04:45:10.438Z,63.85
2019-05-19T04:47:40.254Z,63.38
2019-05-19T04:50:09.996Z,62.22
2019-05-19T04:52:39.325Z,61.71
2019-05-19T04:55:09.066Z,60.64
2019-05-19T04:57:38.326Z,60.13
2019-05-19T05:00:08.521Z,60.07
2019-05-19T05:02:37.758Z,58.66
2019-05-19T05:05:07.356Z,57.82
2019-05-19T05:07:36.596Z,57.64
2019-05-19T05:10:07.022Z,56.37
2019-05-19T05:12:36.283Z,55.07
2019-05-19T05:15:06.245Z,53.60
2019-05-19T05:17:35.496Z,52.05
2019-05-19T05:20:04.963Z,50.01
2019-05-19T05:22:34.189Z,48.79
2019-05-19T05:25:03.451Z,49.42
2019-05-19T05:27:33.163Z,47.97
2019-05-19T05:30:02.494Z,45.82
2019-05-19T05:32:31.719Z,45.10
2019-05-19T05:35:00.977Z,45.26
2019-05-19T05:37:30.508Z,46.17
2019-05-19T05:40:00.710Z,46.04
2019-05-19T05:42:31.878Z,44.59
2019-05-19T05:45:01.388Z,43.65
2019-05-19T05:47:30.655Z,44.25
2019-05-19T05:50:00.378Z,44.51
2019-05-19T05:52:38.055Z,44.44
2019-05-19T05:55:00.933Z,44.91
2019-05-19T05:57:30.158Z,45.63
2019-05-19T06:00:00.065Z,45.59
2019-05-19T06:02:30.014Z,46.28
2019-05-19T06:04:59.277Z,47.09
2019-05-19T06:07:28.495Z,47.91
2019-05-19T06:09:57.777Z,49.51
2019-05-19T06:12:27.007Z,47.86
2019-05-19T06:14:56.328Z,46.13
2019-05-19T06:17:25.636Z,45.28
2019-05-19T06:19:54.855Z,45.34
2019-05-19T06:22:24.217Z,44.23
2019-05-19T06:24:53.427Z,44.56
2019-05-19T06:27:22.699Z,44.91
2019-05-19T06:29:52.089Z,45.37
2019-05-19T06:32:43.422Z,45.15
2019-05-19T06:35:13.410Z,44.52
2019-05-19T06:37:42.672Z,45.36
2019-05-19T06:40:12.095Z,47.45
2019-05-19T06:42:42.677Z,47.75
2019-05-19T06:45:12.291Z,46.58
2019-05-19T06:47:41.536Z,45.10
2019-05-19T06:50:11.090Z,44.13
2019-05-19T06:52:40.333Z,44.30
2019-05-19T06:57:17.365Z,43.25
2019-05-19T06:59:46.626Z,43.36
2019-05-19T07:02:16.497Z,43.71
2019-05-19T07:04:46.393Z,45.61
2019-05-19T07:07:15.942Z,47.80
2019-05-19T07:09:57.474Z,49.81
2019-05-19T07:12:16.444Z,50.57
2019-05-19T07:14:47.107Z,49.92
2019-05-19T07:17:16.345Z,50.73
2019-05-19T07:19:45.784Z,49.47
2019-05-19T07:22:15.019Z,50.03
2019-05-19T07:24:44.516Z,51.17
2019-05-19T07:27:13.865Z,50.22
2019-05-19T07:29:43.081Z,48.84
2019-05-19T07:32:12.336Z,49.61
2019-05-19T07:34:41.924Z,49.96
2019-05-19T07:37:11.839Z,50.07
2019-05-19T07:39:41.216Z,49.79
2019-05-19T07:42:10.469Z,48.25
2019-05-19T07:44:41.153Z,48.20
2019-05-19T07:47:10.377Z,48.19
2019-05-19T07:49:40.093Z,47.80
2019-05-19T07:52:09.353Z,47.89
2019-05-19T07:54:38.568Z,47.41
2019-05-19T07:57:08.275Z,48.51
2019-05-19T07:59:37.562Z,48.48
2019-05-19T08:02:06.816Z,48.38
2019-05-19T08:04:36.336Z,48.70
2019-05-19T08:07:05.636Z,47.84
2019-05-19T08:09:35.026Z,48.23
2019-05-19T08:12:04.510Z,48.36
2019-05-19T08:14:34.020Z,47.58
2019-05-19T08:17:03.311Z,48.28
2019-05-19T08:19:32.533Z,48.40
2019-05-19T08:22:02.223Z,48.85
2019-05-19T08:24:31.486Z,46.41
2019-05-19T08:27:01.039Z,45.66
2019-05-19T08:29:30.302Z,46.12
2019-05-19T08:31:59.887Z,46.69
2019-05-19T08:34:29.124Z,46.32
2019-05-19T08:36:58.367Z,45.90
2019-05-19T08:39:27.610Z,45.52
2019-05-19T08:41:57.040Z,45.28
2019-05-19T08:44:26.267Z,45.25
2019-05-19T08:46:56.174Z,45.12
2019-05-19T08:49:25.986Z,44.86
2019-05-19T08:51:55.285Z,45.55
2019-05-19T08:54:24.526Z,45.60
2019-05-19T08:56:53.770Z,44.70
2019-05-19T08:59:23.182Z,44.36
2019-05-19T09:01:52.439Z,43.86
2019-05-19T09:04:21.770Z,44.27
2019-05-19T09:06:51.292Z,43.54
2019-05-19T09:09:20.867Z,44.10
2019-05-19T09:11:50.110Z,44.28
2019-05-19T09:14:19.386Z,44.62
2019-05-19T09:16:48.706Z,44.73
2019-05-19T09:19:17.940Z,44.69
2019-05-19T09:21:47.204Z,44.90
2019-05-19T09:24:29.503Z,44.38
2019-05-19T09:26:47.763Z,43.77
2019-05-19T09:29:17.002Z,43.43
2019-05-19T09:31:46.293Z,43.67
2019-05-19T09:34:15.525Z,43.68
2019-05-19T09:36:44.796Z,43.08
2019-05-19T09:39:14.022Z,42.76
2019-05-19T09:41:43.262Z,42.42
2019-05-19T09:44:12.534Z,41.77
2019-05-19T09:46:42.376Z,41.85
2019-05-19T09:49:33.927Z,42.16
2019-05-19T09:52:03.678Z,41.53
2019-05-19T09:54:44.143Z,40.65
2019-05-19T09:57:04.112Z,41.33
2019-05-19T09:59:34.857Z,39.55
2019-05-19T10:02:04.548Z,38.82
2019-05-19T10:04:33.989Z,38.82
2019-05-19T10:07:04.026Z,37.48
2019-05-19T10:10:03.527Z,38.36
2019-05-19T10:12:32.758Z,39.24
2019-05-19T10:15:02.838Z,37.07
2019-05-19T10:17:32.549Z,37.39
2019-05-19T10:20:02.509Z,37.32
2019-05-19T10:22:31.887Z,36.58
2019-05-19T10:25:20.395Z,37.33
2019-05-19T10:27:32.762Z,36.72
2019-05-19T10:30:02.079Z,37.66
2019-05-19T10:32:31.300Z,35.83
2019-05-19T10:35:00.540Z,36.15
2019-05-19T10:37:29.816Z,35.69
2019-05-19T10:39:59.043Z,34.82
2019-05-19T10:42:28.763Z,35.05
2019-05-19T10:44:58.240Z,35.65
2019-05-19T10:47:27.461Z,36.27
2019-05-19T10:49:58.113Z,35.83
2019-05-19T10:52:28.018Z,35.15
2019-05-19T10:54:57.249Z,34.95
2019-05-19T10:57:27.126Z,35.11
2019-05-19T10:59:56.384Z,34.39
2019-05-19T11:02:25.604Z,33.96
2019-05-19T11:04:55.022Z,34.60
2019-05-19T11:07:24.240Z,34.20
2019-05-19T11:09:53.947Z,33.99
2019-05-19T11:12:23.379Z,33.57
2019-05-19T11:14:52.958Z,33.83
2019-05-19T11:17:22.207Z,33.36
2019-05-19T11:19:51.771Z,33.00
2019-05-19T11:22:21.320Z,33.05
2019-05-19T11:24:50.624Z,32.98
2019-05-19T11:27:19.874Z,33.29
2019-05-19T11:29:49.314Z,32.36
2019-05-19T11:32:19.005Z,32.28
2019-05-19T11:34:49.886Z,31.65
2019-05-19T11:37:19.133Z,32.02
2019-05-19T11:39:48.413Z,31.61
2019-05-19T11:42:17.896Z,31.90
2019-05-19T11:44:47.108Z,31.13
2019-05-19T11:47:16.311Z,31.41
2019-05-19T11:49:46.021Z,31.38
2019-05-19T11:52:15.238Z,31.17
2019-05-19T11:54:44.479Z,31.08
2019-05-19T11:57:13.758Z,31.82
2019-05-19T11:59:42.991Z,32.55
2019-05-19T12:02:12.380Z,32.23
2019-05-19T12:04:41.890Z,31.49
2019-05-19T12:07:11.515Z,31.45
2019-05-19T12:09:41.496Z,31.09
2019-05-19T12:12:10.759Z,30.60
2019-05-19T12:14:40.168Z,30.31
2019-05-19T12:17:09.481Z,31.73
2019-05-19T12:19:38.998Z,31.43
2019-05-19T12:22:08.253Z,32.37
2019-05-19T12:24:37.824Z,31.10
2019-05-19T12:27:07.091Z,31.20
2019-05-19T12:29:36.613Z,30.82
2019-05-19T12:32:05.926Z,31.38
2019-05-19T12:34:35.525Z,32.10
2019-05-19T12:37:04.766Z,31.90
2019-05-19T12:39:34.017Z,32.65
2019-05-19T12:42:03.271Z,31.85
2019-05-19T12:44:32.937Z,31.44
2019-05-19T12:47:02.479Z,30.82
2019-05-19T12:49:32.056Z,31.42
2019-05-19T12:52:01.351Z,31.26
2019-05-19T12:54:30.641Z,31.19
2019-05-19T12:57:00.054Z,31.10
2019-05-19T12:59:29.635Z,32.60
2019-05-19T13:01:58.866Z,29.52
2019-05-19T13:04:28.482Z,29.67
2019-05-19T13:06:57.726Z,30.18
2019-05-19T13:09:26.954Z,30.07
2019-05-19T13:11:56.285Z,30.61
2019-05-19T13:14:25.550Z,30.18
2019-05-19T13:16:55.107Z,30.49
2019-05-19T13:19:24.353Z,29.36
2019-05-19T13:21:53.963Z,30.49
2019-05-19T13:24:25.045Z,31.50
2019-05-19T13:26:56.882Z,31.61
2019-05-19T13:29:28.100Z,31.91
2019-05-19T13:31:57.663Z,32.23
2019-05-19T13:34:27.050Z,32.56
2019-05-19T13:36:56.567Z,32.11
2019-05-19T13:39:26.178Z,32.68
2019-05-19T13:41:55.844Z,31.50
2019-05-19T13:44:25.395Z,31.17
2019-05-19T13:46:55.321Z,32.56
2019-05-19T13:49:24.808Z,32.02
2019-05-19T13:51:54.429Z,30.81
2019-05-19T13:54:23.650Z,29.13
2019-05-19T13:56:52.913Z,29.13
2019-05-19T13:59:22.270Z,29.82
2019-05-19T14:01:51.813Z,29.10
2019-05-19T14:04:21.039Z,28.96
2019-05-19T14:06:50.897Z,29.63
2019-05-19T14:09:20.600Z,28.82
2019-05-19T14:11:49.876Z,29.18
2019-05-19T14:14:19.145Z,29.64
2019-05-19T14:16:48.771Z,28.24
2019-05-19T14:19:18.418Z,29.21
2019-05-19T14:21:47.765Z,30.60
2019-05-19T14:24:17.099Z,31.80
2019-05-19T14:26:46.355Z,30.68
2019-05-19T14:29:15.566Z,36.03
2019-05-19T14:31:44.841Z,34.91
2019-05-19T14:34:14.061Z,35.72
2019-05-19T14:36:43.331Z,36.77
2019-05-19T14:39:12.718Z,36.29
2019-05-19T14:41:46.732Z,36.91
2019-05-19T14:44:15.957Z,36.69
2019-05-19T14:46:45.583Z,35.81
2019-05-19T14:49:14.841Z,36.27
2019-05-19T14:51:44.124Z,37.01
2019-05-19T14:54:13.423Z,36.17
2019-05-19T14:56:42.643Z,37.33
2019-05-19T14:59:11.850Z,38.20
2019-05-19T15:01:41.483Z,38.18
2019-05-19T15:04:10.717Z,37.44
2019-05-19T15:06:40.343Z,37.22
2019-05-19T15:09:10.147Z,36.98
2019-05-19T15:11:39.461Z,35.73
2019-05-19T15:14:09.168Z,34.71
2019-05-19T15:16:38.533Z,34.90
2019-05-19T15:19:07.763Z,34.76
2019-05-19T15:21:36.992Z,34.25
2019-05-19T15:24:06.347Z,35.26
2019-05-19T15:26:39.597Z,41.22
2019-05-19T15:29:08.874Z,55.36
2019-05-19T15:31:38.364Z,56.70
2019-05-19T15:34:07.581Z,66.42
2019-05-19T15:36:37.213Z,66.16
2019-05-19T15:39:07.747Z,64.67
2019-05-19T15:41:37.521Z,63.40
2019-05-19T15:44:09.087Z,66.22
2019-05-19T15:46:40.262Z,67.95
2019-05-19T15:49:09.794Z,69.40
2019-05-19T15:51:58.331Z,70.21
2019-05-19T15:54:13.206Z,70.39
2019-05-19T15:56:43.921Z,69.78
2019-05-19T15:59:13.498Z,68.14
2019-05-19T16:01:42.829Z,64.55
2019-05-19T16:04:12.565Z,64.44
2019-05-19T16:06:42.114Z,62.97
2019-05-19T16:09:11.897Z,59.78
2019-05-19T16:11:41.293Z,59.63
2019-05-19T16:14:10.617Z,59.25
2019-05-19T16:16:41.184Z,58.35
2019-05-19T16:19:10.462Z,58.94
2019-05-19T16:21:39.688Z,60.78
2019-05-19T16:24:08.989Z,50.05
2019-05-19T16:26:38.662Z,57.25
2019-05-19T16:29:08.871Z,56.01
2019-05-19T16:31:38.238Z,56.10
2019-05-19T16:34:07.819Z,56.19
2019-05-19T16:36:37.063Z,56.75
2019-05-19T16:39:07.300Z,59.37
2019-05-19T16:41:36.977Z,57.96
2019-05-19T16:44:06.256Z,59.61
2019-05-19T16:46:35.867Z,58.84
2019-05-19T16:49:05.103Z,59.01
2019-05-19T16:51:34.679Z,59.00
2019-05-19T16:54:08.039Z,57.29
2019-05-19T16:56:37.677Z,59.65
2019-05-19T16:59:07.304Z,60.81
2019-05-19T17:01:37.985Z,61.36
2019-05-19T17:04:07.911Z,63.12
2019-05-19T17:06:37.136Z,63.68
2019-05-19T17:09:06.896Z,63.03
2019-05-19T17:11:36.191Z,63.24
2019-05-19T17:14:05.609Z,61.01
2019-05-19T17:16:34.930Z,61.10
2019-05-19T17:19:06.245Z,62.14
2019-05-19T17:21:35.804Z,60.79
2019-05-19T17:24:05.063Z,65.11
2019-05-19T17:26:35.150Z,66.04
2019-05-19T17:29:04.694Z,67.50
2019-05-19T17:31:34.267Z,68.08
2019-05-19T17:34:03.745Z,68.01
2019-05-19T17:36:33.333Z,67.67
2019-05-19T17:39:02.693Z,67.29
2019-05-19T17:41:31.938Z,66.74
2019-05-19T17:44:01.165Z,67.48
2019-05-19T17:46:30.442Z,67.48
2019-05-19T17:49:00.481Z,67.56
2019-05-19T17:51:30.284Z,68.32
2019-05-19T17:54:01.410Z,68.91
2019-05-19T17:56:31.308Z,69.08
2019-05-19T17:59:14.530Z,68.22
2019-05-19T18:01:32.628Z,67.33
2019-05-19T18:04:01.864Z,66.45
2019-05-19T18:06:31.100Z,67.34
2019-05-19T18:09:01.158Z,67.64
2019-05-19T18:11:30.398Z,68.83
2019-05-19T18:14:01.374Z,68.93
2019-05-19T18:16:30.778Z,69.06
2019-05-19T18:19:01.227Z,69.13
2019-05-19T18:21:30.821Z,69.87
2019-05-19T18:24:01.016Z,70.08
2019-05-19T18:26:30.854Z,70.32
2019-05-19T18:29:02.221Z,70.14
2019-05-19T18:31:31.479Z,70.55
2019-05-19T18:34:00.720Z,71.38
2019-05-19T18:36:30.500Z,71.37
2019-05-19T18:39:00.046Z,71.27
2019-05-19T18:41:29.321Z,70.95
2019-05-19T18:43:59.434Z,71.11
2019-05-19T18:46:28.664Z,70.92
2019-05-19T18:48:58.668Z,71.22
2019-05-19T18:51:28.149Z,70.69
2019-05-19T18:53:57.692Z,70.50
2019-05-19T18:56:26.979Z,73.23
2019-05-19T18:58:56.227Z,75.22
2019-05-19T19:01:25.523Z,76.08
2019-05-19T19:03:54.808Z,76.19
2019-05-19T19:06:24.689Z,77.01
2019-05-19T19:09:14.574Z,76.96
2019-05-19T19:11:43.832Z,76.49
2019-05-19T19:14:13.480Z,76.06
2019-05-19T19:16:42.691Z,75.38
2019-05-19T19:19:11.958Z,74.91
2019-05-19T19:21:41.229Z,75.25
2019-05-19T19:24:10.456Z,75.79
2019-05-19T19:26:41.859Z,76.12
2019-05-19T19:29:11.101Z,76.06
2019-05-19T19:31:48.730Z,75.70
2019-05-19T19:34:12.044Z,76.09
2019-05-19T19:36:41.931Z,76.10
2019-05-19T19:39:11.196Z,76.38
2019-05-19T19:41:40.390Z,76.72
2019-05-19T19:44:10.345Z,76.65
2019-05-19T19:46:40.264Z,76.85
2019-05-19T19:49:09.793Z,76.84
2019-05-19T19:51:39.086Z,77.06
2019-05-19T19:54:08.686Z,77.17
2019-05-19T19:56:38.474Z,77.39
2019-05-19T19:59:07.965Z,77.34
2019-05-19T20:01:38.233Z,77.32
2019-05-19T20:04:07.866Z,77.31
2019-05-19T20:06:37.331Z,77.55
2019-05-19T20:09:07.364Z,77.62
2019-05-19T20:11:37.005Z,77.90
2019-05-19T20:14:06.783Z,78.02
2019-05-19T20:16:36.029Z,77.72
2019-05-19T20:19:05.262Z,77.53
2019-05-19T20:21:34.559Z,77.71
2019-05-19T20:24:04.508Z,77.70
2019-05-19T20:26:33.722Z,77.66
2019-05-19T20:29:03.654Z,77.66
2019-05-19T20:31:32.941Z,77.51
2019-05-19T20:34:02.173Z,77.43
2019-05-19T20:36:31.394Z,77.32
2019-05-19T20:39:00.703Z,77.03
2019-05-19T20:41:30.336Z,76.66
2019-05-19T20:43:59.929Z,76.73
2019-05-19T20:46:29.571Z,76.39
2019-05-19T20:48:58.806Z,76.43
2019-05-19T20:51:28.477Z,76.51
2019-05-19T20:53:57.696Z,76.58
2019-05-19T20:56:26.977Z,76.72
2019-05-19T20:58:56.877Z,76.80
2019-05-19T21:01:26.469Z,76.74
2019-05-19T21:03:55.729Z,76.73
2019-05-19T21:06:26.063Z,76.62
2019-05-19T21:08:55.700Z,76.82
2019-05-19T21:11:24.971Z,76.96
2019-05-19T21:13:54.300Z,77.34
2019-05-19T21:16:23.865Z,77.51
2019-05-19T21:18:53.108Z,77.57
2019-05-19T21:21:23.053Z,77.58
2019-05-19T21:23:52.530Z,77.49
2019-05-19T21:26:22.060Z,77.49
2019-05-19T21:28:51.672Z,77.26
2019-05-19T21:31:21.188Z,76.89
2019-05-19T21:33:50.431Z,76.88
2019-05-19T21:36:20.026Z,76.37
2019-05-19T21:38:49.300Z,76.39
2019-05-19T21:41:18.531Z,76.01
2019-05-19T21:43:48.500Z,76.23
2019-05-19T21:46:17.746Z,77.28
2019-05-19T21:48:46.985Z,78.40
2019-05-19T21:51:16.506Z,79.18
2019-05-19T21:53:46.090Z,79.76
2019-05-19T21:56:15.316Z,80.04
2019-05-19T21:58:45.027Z,80.26
2019-05-19T22:01:22.940Z,80.46
2019-05-19T22:03:45.249Z,80.65
2019-05-19T22:06:15.193Z,80.80
2019-05-19T22:08:44.437Z,80.90
2019-05-19T22:11:14.100Z,81.01
2019-05-19T22:13:43.467Z,81.13
2019-05-19T22:16:13.902Z,81.24
2019-05-19T22:18:43.950Z,81.31
2019-05-19T22:21:13.175Z,81.35
2019-05-19T22:23:42.423Z,81.39
2019-05-19T22:26:11.655Z,81.49
2019-05-19T22:28:41.257Z,81.60
2019-05-19T22:31:10.874Z,81.67
2019-05-19T22:33:40.366Z,81.65
2019-05-19T22:36:09.599Z,81.63
2019-05-19T22:38:38.829Z,81.63
2019-05-19T22:41:08.069Z,81.67
2019-05-19T22:43:39.515Z,81.77
2019-05-19T22:46:08.835Z,81.81
2019-05-19T22:48:38.083Z,81.80
2019-05-19T22:51:07.632Z,81.80
2019-05-19T22:53:36.920Z,81.78
2019-05-19T22:56:06.458Z,81.75
2019-05-19T22:58:35.768Z,81.66
2019-05-19T23:01:05.070Z,81.54
2019-05-19T23:03:34.311Z,81.43
2019-05-19T23:06:03.962Z,81.37
2019-05-19T23:08:34.244Z,81.27
2019-05-19T23:11:03.480Z,81.22
2019-05-19T23:13:32.788Z,81.19
2019-05-19T23:16:02.014Z,81.11
2019-05-19T23:18:32.009Z,81.05
2019-05-19T23:21:01.825Z,81.10
2019-05-19T23:23:31.038Z,81.15
2019-05-19T23:26:00.267Z,81.16
2019-05-19T23:28:29.696Z,81.12
2019-05-19T23:30:58.927Z,81.05
2019-05-19T23:33:28.198Z,81.08
2019-05-19T23:35:57.615Z,81.30
2019-05-19T23:38:27.257Z,81.46
2019-05-19T23:40:56.841Z,81.78
2019-05-19T23:43:26.536Z,82.08
2019-05-19T23:45:56.125Z,82.21
2019-05-19T23:48:26.347Z,82.24
2019-05-19T23:50:55.667Z,82.21
2019-05-19T23:53:24.905Z,82.17
2019-05-19T23:55:54.137Z,82.14
2019-05-19T23:58:23.785Z,82.10
